Weather reports worldwide

Advertisment
Bridlington Mrsc, United Kingdom (3292): temperature & dewpoint: 11.07.2019 08:00:00 - 17.07.2019 08:00:00 (BST)Bridlington Mrsc, United Kingdom (3292): wind speed & gusts: 11.07.2019 08:00:00 - 17.07.2019 08:00:00 (BST)Bridlington Mrsc, United Kingdom (3292): wind direction: 11.07.2019 08:00:00 - 17.07.2019 08:00:00 (BST)Bridlington Mrsc, United Kingdom (3292): reduced air pressure: 11.07.2019 08:00:00 - 17.07.2019 08:00:00 (BST)Bridlington Mrsc, United Kingdom (3292): precipitation: 11.07.2019 08:00:00 - 17.07.2019 08:00:00 (BST)
Date & Time tt [°C] td [°C] ff [km/h] ff [kn] fx [km/h] fx [kn] dd ppp [hPa] rr [mm]
17.07.2019 08:00:00 18,0 12,3 8 4 - - WNW 1014,0 0,0
17.07.2019 07:00:00 15,2 11,0 9 5 - - W 1014,3 0,0
17.07.2019 06:00:00 12,7 10,2 11 6 - - W 1014,4 0,0
17.07.2019 05:00:00 12,1 9,3 5 3 - - W 1014,7 0,0
17.07.2019 04:00:00 13,8 9,8 8 4 - - W 1014,7 0,0
17.07.2019 03:00:00 14,4 10,0 15 8 - - NW 1015,1 0,0
17.07.2019 02:00:00 14,7 10,2 15 8 - - NW 1015,6 0,0
17.07.2019 01:00:00 15,0 10,8 15 8 - - WNW 1016,0 0,0
17.07.2019 00:00:00 15,9 11,5 13 7 - - WNW 1016,2 0,0
16.07.2019 23:00:00 16,6 12,3 11 6 - - WNW 1016,3 0,0
16.07.2019 22:00:00 16,0 13,4 2 1 - - SW 1016,3 0,0
16.07.2019 21:00:00 17,4 13,6 4 2 - - SW 1016,2 0,0
16.07.2019 20:00:00 17,1 14,6 4 2 - - E 1016,1 0,0
16.07.2019 19:00:00 17,3 14,2 4 2 - - ENE 1016,3 0,0
16.07.2019 18:00:00 17,9 13,8 8 4 - - E 1016,6 0,0
16.07.2019 17:00:00 17,4 14,0 9 5 - - E 1016,7 0,0
16.07.2019 16:00:00 18,8 14,5 11 6 - - E 1017,0 0,0
16.07.2019 15:00:00 17,7 14,0 9 5 - - E 1017,5 0,0
16.07.2019 14:00:00 19,0 14,7 13 7 - - E 1017,6 0,0
16.07.2019 13:00:00 18,1 14,4 11 6 - - E 1017,7 0,0
16.07.2019 12:00:00 18,6 14,7 8 4 - - ESE 1018,0 0,0
16.07.2019 11:00:00 17,7 14,1 5 3 - - ESE 1018,1 0,0
16.07.2019 10:00:00 16,9 13,9 8 4 - - ESE 1018,4 -
16.07.2019 09:00:00 17,2 14,0 5 3 - - E 1018,6 0,0
16.07.2019 08:00:00 16,7 13,4 9 5 - - W 1018,6 0,0
16.07.2019 07:00:00 14,2 12,6 5 3 - - NW 1018,8 0,0
16.07.2019 06:00:00 11,6 10,5 9 5 - - NW 1018,6 0,0
16.07.2019 05:00:00 11,6 10,5 8 4 - - NW 1018,6 0,0
16.07.2019 04:00:00 12,0 11,0 11 6 - - NW 1019,1 0,0
16.07.2019 03:00:00 12,2 11,2 8 4 - - WNW 1019,4 0,0
16.07.2019 02:00:00 12,6 11,5 5 3 - - WNW 1019,9 0,0
16.07.2019 01:00:00 12,9 11,3 5 3 - - W 1020,3 0,0
16.07.2019 00:00:00 14,0 12,3 9 5 - - S 1020,6 0,0
15.07.2019 23:00:00 13,9 11,5 9 5 - - S 1020,9 0,0
15.07.2019 22:00:00 14,0 11,8 11 6 - - SSE 1020,9 0,0
15.07.2019 21:00:00 14,5 11,9 11 6 - - SSE 1020,9 0,0
15.07.2019 20:00:00 14,7 11,5 11 6 - - ESE 1021,0 0,0
15.07.2019 19:00:00 15,3 11,7 13 7 - - ESE 1021,0 0,0
15.07.2019 18:00:00 16,4 12,0 16 9 - - ESE 1021,2 0,0
15.07.2019 17:00:00 16,9 12,7 21 11 - - E 1021,6 0,0
15.07.2019 16:00:00 17,6 12,8 21 11 - - E 1021,9 0,0
15.07.2019 15:00:00 18,1 12,2 18 10 - - ESE 1022,1 0,0
15.07.2019 14:00:00 18,6 12,8 16 9 - - ESE 1022,1 0,0
15.07.2019 13:00:00 18,4 13,4 15 8 - - ESE 1022,3 0,0
15.07.2019 12:00:00 16,6 12,0 16 9 - - SE 1022,5 0,0
15.07.2019 11:00:00 18,3 11,6 5 3 - - N 1022,7 0,0
15.07.2019 10:00:00 17,3 11,5 9 5 - - NNW 1022,6 0,0
15.07.2019 09:00:00 16,6 12,1 11 6 - - W 1022,9 0,0
15.07.2019 08:00:00 14,3 11,7 8 4 - - WNW 1023,1 0,0
15.07.2019 07:00:00 12,9 11,0 8 4 - - W 1023,0 0,0
15.07.2019 06:00:00 11,9 10,7 9 5 - - NW 1023,2 0,0
15.07.2019 05:00:00 10,9 9,6 9 5 - - WNW 1023,3 0,0
15.07.2019 04:00:00 12,0 10,3 8 4 - - WNW 1023,3 0,0
15.07.2019 03:00:00 12,9 10,9 4 2 - - NW 1023,7 0,0
15.07.2019 02:00:00 13,0 10,3 9 5 - - NNE 1023,9 0,0
15.07.2019 01:00:00 13,7 11,2 13 7 - - NNE 1024,0 0,0
15.07.2019 00:00:00 14,0 11,5 11 6 - - N 1024,2 0,0
14.07.2019 23:00:00 13,2 10,9 5 3 - - W 1024,3 0,0
14.07.2019 22:00:00 13,8 11,0 15 8 - - N 1024,1 0,0
14.07.2019 21:00:00 14,7 11,0 18 10 - - N 1024,1 0,0
14.07.2019 20:00:00 15,1 10,7 18 10 - - N 1024,4 0,0
14.07.2019 19:00:00 15,9 11,0 21 11 - - N 1024,5 0,0
14.07.2019 18:00:00 16,5 11,0 21 11 - - N 1024,5 0,0
14.07.2019 17:00:00 17,1 10,1 24 13 - - N 1024,5 0,0
14.07.2019 16:00:00 16,8 11,5 26 14 - - N 1025,0 0,0
14.07.2019 15:00:00 16,4 11,3 26 14 - - N 1025,0 0,0
14.07.2019 14:00:00 15,7 12,3 21 11 - - N 1025,0 0,0
14.07.2019 13:00:00 17,0 10,9 21 11 - - N 1024,9 0,0
14.07.2019 12:00:00 15,9 11,5 21 11 - - N 1024,6 0,0
14.07.2019 11:00:00 15,4 11,7 21 11 - - N 1024,5 0,0
14.07.2019 10:00:00 15,9 12,1 18 10 - - N 1024,4 0,0
14.07.2019 09:00:00 15,4 14,3 16 9 - - N 1024,1 0,2
14.07.2019 08:00:00 14,1 13,1 13 7 - - NNW 1023,9 0,0
14.07.2019 07:00:00 14,2 13,3 9 5 - - WNW 1023,5 0,0
14.07.2019 06:00:00 13,5 12,6 9 5 - - WNW 1023,6 0,0
14.07.2019 05:00:00 13,9 13,0 9 5 - - NW 1023,7 0,0
14.07.2019 04:00:00 13,9 13,2 9 5 - - NNW 1023,5 0,2
14.07.2019 03:00:00 14,3 13,7 9 5 - - NNW 1023,8 0,0
14.07.2019 02:00:00 14,2 13,5 5 3 - - NNW 1023,9 0,0
14.07.2019 01:00:00 14,2 13,6 5 3 - - NNW 1023,7 0,0
14.07.2019 00:00:00 14,1 13,6 2 1 - - NNW 1023,5 0,0
13.07.2019 23:00:00 14,1 13,4 8 4 - - NNE 1023,4 0,2
13.07.2019 22:00:00 14,2 13,5 9 5 - - N 1023,5 2,0
13.07.2019 21:00:00 15,3 13,0 13 7 - - NNE 1023,3 0,0
13.07.2019 20:00:00 15,9 12,6 9 5 - - NNE 1022,8 0,0
13.07.2019 19:00:00 16,8 13,5 15 8 - - NNE 1022,5 0,0
13.07.2019 18:00:00 17,1 13,2 18 10 - - N 1022,6 0,0
13.07.2019 17:00:00 18,0 13,2 16 9 - - NNE 1022,5 0,0
13.07.2019 16:00:00 18,4 12,9 21 11 - - N 1022,7 0,0
13.07.2019 15:00:00 18,6 12,6 26 14 - - N 1022,4 0,0
13.07.2019 14:00:00 18,9 13,2 22 12 - - N 1022,6 0,0
13.07.2019 13:00:00 17,4 13,0 21 11 - - N 1022,4 0,0
13.07.2019 12:00:00 16,9 13,8 21 11 - - NNW 1022,4 0,0
13.07.2019 11:00:00 16,8 13,9 13 7 - - NNW 1021,9 0,0
13.07.2019 10:00:00 16,3 13,5 13 7 - - N 1021,9 0,0
13.07.2019 09:00:00 16,5 13,5 15 8 - - N 1021,4 0,0
13.07.2019 08:00:00 16,0 13,5 11 6 - - N 1020,8 0,0
13.07.2019 07:00:00 15,1 14,0 15 8 - - NNW 1020,4 0,0
13.07.2019 06:00:00 14,8 13,9 13 7 - - NNW 1020,1 0,0
13.07.2019 05:00:00 14,9 13,4 13 7 - - NNW 1019,5 0,0
13.07.2019 04:00:00 14,9 13,4 13 7 - - NNW 1019,2 0,0
13.07.2019 03:00:00 15,2 13,2 13 7 - - NNW 1019,2 0,0
13.07.2019 02:00:00 15,3 13,4 9 5 - - NW 1019,1 0,0
13.07.2019 01:00:00 15,3 13,6 9 5 - - NW 1018,8 0,0
13.07.2019 00:00:00 15,2 13,5 11 6 - - NNW 1018,4 0,0
12.07.2019 23:00:00 14,7 13,0 9 5 - - NNW 1018,3 0,0
12.07.2019 22:00:00 14,9 12,8 8 4 - - NW 1017,8 0,0
12.07.2019 21:00:00 15,6 13,5 15 8 - - NNW 1017,2 0,0
12.07.2019 20:00:00 16,3 13,7 16 9 - - NNW 1016,6 0,0
12.07.2019 19:00:00 16,9 13,6 22 12 - - N 1016,0 0,0
12.07.2019 18:00:00 17,7 13,6 22 12 - - NNW 1015,6 0,0
12.07.2019 17:00:00 18,4 13,9 22 12 - - NNW 1015,1 0,0
12.07.2019 16:00:00 18,1 14,1 26 14 - - NNW 1014,9 0,0
12.07.2019 15:00:00 19,1 14,7 22 12 52 28 NNW 1014,4 0,0
12.07.2019 14:00:00 17,5 14,1 26 14 46 25 NNW 1014,1 0,0
12.07.2019 13:00:00 18,6 13,9 24 13 46 25 NNW 1013,5 0,0
12.07.2019 12:00:00 18,9 13,2 26 14 - - NNW 1012,8 0,0
12.07.2019 11:00:00 18,9 12,7 24 13 - - N 1012,2 0,0
12.07.2019 10:00:00 18,8 12,8 22 12 - - N 1011,9 0,0
12.07.2019 09:00:00 18,9 13,2 15 8 - - NW 1011,5 0,0
12.07.2019 08:00:00 16,9 13,0 13 7 - - WNW 1011,2 0,0
12.07.2019 07:00:00 15,4 12,8 13 7 - - WNW 1011,1 0,0
12.07.2019 06:00:00 12,7 11,5 13 7 - - WNW 1010,7 0,0
12.07.2019 05:00:00 12,3 11,0 13 7 - - WNW 1010,3 0,0
12.07.2019 04:00:00 12,6 11,1 11 6 - - WNW 1010,2 0,0
12.07.2019 03:00:00 13,1 11,3 15 8 - - WNW 1010,2 0,0
12.07.2019 02:00:00 13,9 11,8 11 6 - - W 1010,2 0,0
12.07.2019 01:00:00 14,4 11,8 11 6 - - WSW 1010,2 0,0
12.07.2019 00:00:00 15,9 12,5 15 8 - - W 1010,2 0,0
11.07.2019 23:00:00 17,6 13,5 15 8 - - W 1010,1 0,0
11.07.2019 22:00:00 19,0 13,2 8 4 - - WNW 1009,7 0,0
11.07.2019 21:00:00 21,1 13,1 9 5 - - WNW 1009,6 0,0
11.07.2019 20:00:00 22,3 12,7 15 8 - - WNW 1009,4 0,0
11.07.2019 19:00:00 23,1 12,1 21 11 - - W 1009,1 0,0
11.07.2019 18:00:00 24,2 12,8 21 11 - - W 1009,0 0,0
11.07.2019 17:00:00 23,8 14,6 16 9 - - WSW 1009,0 0,0
11.07.2019 16:00:00 24,8 14,7 21 11 - - W 1009,2 0,0
11.07.2019 15:00:00 23,2 14,7 9 5 - - W 1009,5 0,0
11.07.2019 14:00:00 23,0 15,1 15 8 - - W 1009,9 0,0
11.07.2019 13:00:00 22,0 14,8 16 9 - - WSW 1009,9 0,0
11.07.2019 12:00:00 20,0 14,7 13 7 - - SW 1010,2 0,0
11.07.2019 11:00:00 19,3 15,2 11 6 - - W 1010,4 0,0
11.07.2019 10:00:00 18,4 15,2 16 9 - - W 1010,4 0,0
11.07.2019 09:00:00 17,1 14,9 13 7 - - WSW 1010,5 0,0
11.07.2019 08:00:00 16,8 14,9 13 7 - - WSW 1010,5 0,0

tt = temperature
td = dewpoint
ff = wind speed
fx = gusts
dd = wind direction
ppp = reduced air pressure
rr = precipitation

Next stations